Time;durP1;ratioP1;P1;durP2;ratioP2;P2;SDS_P1;SDS_P2;PMS_P1;PMS_P2;Temp;Humidity;BMP_temperature;BMP_pressure;BME280_temperature;BME280_humidity;BME280_pressure;Samples;Min_cycle;Max_cycle;Signal;HPM_P1;HPM_P2
2023/12/23 00:01:12;;;;;;;14.20;2.05;;;4.60;99.90;;;;;;5049447;28;20067;-80
2023/12/23 00:03:38;;;;;;;15.45;2.00;;;4.60;99.90;;;;;;5053787;28;20037;-80
2023/12/23 00:06:04;;;;;;;13.60;3.08;;;4.60;99.90;;;;;;5054933;28;21156;-80
2023/12/23 00:08:29;;;;;;;14.38;2.17;;;4.50;99.90;;;;;;5055297;28;20045;-80
2023/12/23 00:10:55;;;;;;;10.25;1.98;;;4.50;99.90;;;;;;5036718;28;20442;-80
2023/12/23 00:13:21;;;;;;;12.82;2.00;;;4.40;99.90;;;;;;5054021;28;20377;-80
2023/12/23 00:15:46;;;;;;;16.52;1.92;;;4.30;99.90;;;;;;5052614;28;20083;-80
2023/12/23 00:18:12;;;;;;;8.98;2.20;;;4.30;99.90;;;;;;5053944;28;20040;-80
2023/12/23 00:20:38;;;;;;;8.40;1.77;;;4.20;99.90;;;;;;5054431;28;20029;-80
2023/12/23 00:23:04;;;;;;;11.85;2.20;;;4.20;99.90;;;;;;5052649;28;20428;-80
2023/12/23 00:25:29;;;;;;;15.70;2.20;;;4.20;99.90;;;;;;5052438;28;20033;-80
2023/12/23 00:27:55;;;;;;;11.82;2.75;;;4.20;99.90;;;;;;5053495;28;20516;-80
2023/12/23 00:30:21;;;;;;;15.68;2.17;;;4.10;99.90;;;;;;5037494;28;20152;-80
2023/12/23 00:32:47;;;;;;;17.30;2.58;;;4.20;99.90;;;;;;5054328;28;20029;-80
2023/12/23 00:35:13;;;;;;;9.50;1.77;;;4.20;99.90;;;;;;5054178;28;20056;-80
2023/12/23 00:37:38;;;;;;;16.35;3.20;;;4.20;99.90;;;;;;5034364;28;20489;-80
2023/12/23 00:40:06;;;;;;;18.08;2.25;;;4.20;99.90;;;;;;5034969;28;20061;-80
2023/12/23 00:42:32;;;;;;;13.32;2.10;;;4.20;99.90;;;;;;5054105;28;20067;-80
2023/12/23 00:44:57;;;;;;;11.43;2.13;;;4.20;99.90;;;;;;5056362;28;20045;-80
2023/12/23 00:47:23;;;;;;;16.05;2.17;;;4.30;99.90;;;;;;5054730;28;20072;-80
2023/12/23 00:49:49;;;;;;;17.88;2.13;;;4.30;99.90;;;;;;5054622;28;20474;-80
2023/12/23 00:52:14;;;;;;;15.85;3.10;;;4.30;99.90;;;;;;5050818;28;20542;-80
2023/12/23 00:54:40;;;;;;;14.82;2.22;;;4.40;99.90;;;;;;5055221;28;20063;-80
2023/12/23 00:57:06;;;;;;;11.43;2.33;;;4.40;99.90;;;;;;5053924;28;20037;-80
2023/12/23 00:59:31;;;;;;;12.77;2.15;;;4.60;99.90;;;;;;5049683;28;20051;-79
2023/12/23 01:01:57;;;;;;;17.17;2.20;;;4.60;99.90;;;;;;5086032;28;20037;-80
2023/12/23 01:04:22;;;;;;;11.57;1.70;;;4.70;99.90;;;;;;5051855;28;20044;-79
2023/12/23 01:06:49;;;;;;;12.02;2.33;;;4.80;99.90;;;;;;5057001;28;20037;-80
2023/12/23 01:09:15;;;;;;;14.32;2.40;;;4.80;99.90;;;;;;5053927;28;20041;-80
2023/12/23 01:11:40;;;;;;;10.68;2.30;;;4.90;99.90;;;;;;5055535;28;20079;-79
2023/12/23 01:14:06;;;;;;;14.05;2.38;;;5.00;99.90;;;;;;5089397;28;20029;-80
2023/12/23 01:16:32;;;;;;;10.80;1.77;;;5.00;99.90;;;;;;5051173;28;20033;-79
2023/12/23 01:18:57;;;;;;;11.35;1.90;;;5.00;99.90;;;;;;5051995;28;20072;-79
2023/12/23 01:21:23;;;;;;;9.00;1.88;;;5.10;99.90;;;;;;5054826;28;20068;-79
2023/12/23 01:23:49;;;;;;;7.55;1.60;;;5.10;99.90;;;;;;5055912;28;20140;-80
2023/12/23 01:26:15;;;;;;;13.50;1.98;;;5.20;99.90;;;;;;5055136;28;20041;-79
2023/12/23 01:28:40;;;;;;;16.38;2.35;;;5.20;99.90;;;;;;5054404;28;20055;-80
2023/12/23 01:31:06;;;;;;;12.27;2.35;;;5.20;99.90;;;;;;5052997;28;20030;-80
2023/12/23 01:33:31;;;;;;;12.70;2.00;;;5.20;99.90;;;;;;5052181;28;20722;-79
2023/12/23 01:35:57;;;;;;;8.30;1.48;;;5.20;99.90;;;;;;5053700;28;20036;-79
2023/12/23 01:38:23;;;;;;;14.18;2.35;;;5.20;99.90;;;;;;5055264;28;20048;-80
2023/12/23 01:40:48;;;;;;;13.93;2.20;;;5.20;99.90;;;;;;5055590;28;20037;-79
2023/12/23 01:43:14;;;;;;;12.80;2.20;;;5.30;99.90;;;;;;5053158;28;20190;-79
2023/12/23 01:45:40;;;;;;;15.25;2.00;;;5.30;99.90;;;;;;5055261;28;20401;-79
2023/12/23 01:48:09;;;;;;;16.95;2.05;;;5.30;99.90;;;;;;5051080;28;20040;-80
2023/12/23 01:50:35;;;;;;;15.98;2.63;;;5.40;99.90;;;;;;5053896;28;20171;-80
2023/12/23 01:53:01;;;;;;;12.23;2.00;;;5.40;99.90;;;;;;5054979;28;20091;-80
2023/12/23 01:55:27;;;;;;;15.85;2.22;;;5.50;99.90;;;;;;5055577;28;20044;-79
2023/12/23 01:57:54;;;;;;;13.80;2.20;;;5.60;99.90;;;;;;5051550;28;20045;-80
2023/12/23 02:00:22;;;;;;;15.50;2.25;;;5.60;99.90;;;;;;5053990;28;20044;-80
2023/12/23 02:02:48;;;;;;;12.65;2.10;;;5.60;99.90;;;;;;5083652;28;20045;-80
2023/12/23 02:05:14;;;;;;;10.68;2.45;;;5.60;99.90;;;;;;5034260;28;20048;-80
2023/12/23 02:07:44;;;;;;;10.20;2.08;;;5.60;99.90;;;;;;5054139;28;20108;-80
2023/12/23 02:10:10;;;;;;;16.90;2.50;;;5.50;99.90;;;;;;5054813;28;20113;-80
2023/12/23 02:12:58;;;;;;;15.43;2.65;;;5.80;99.90;;;;;;5053432;28;20056;-79
2023/12/23 02:15:25;;;;;;;12.73;2.42;;;5.70;99.90;;;;;;5087533;28;20048;-79
2023/12/23 02:17:59;;;;;;;12.70;1.98;;;5.50;99.90;;;;;;5050322;28;20075;-79
2023/12/23 02:20:24;;;;;;;;;;;5.50;99.90;;;;;;5047187;28;20064;-80
2023/12/23 02:22:50;;;;;;;13.20;1.70;;;5.60;99.90;;;;;;5054744;28;19924;-80
2023/12/23 02:25:16;;;;;;;11.27;2.28;;;5.60;99.90;;;;;;5049366;28;20033;-79
2023/12/23 02:27:50;;;;;;;7.28;1.45;;;5.60;99.90;;;;;;5054439;28;20055;-80
2023/12/23 02:30:16;;;;;;;11.20;1.67;;;5.60;99.90;;;;;;5050339;28;20057;-80
2023/12/23 02:32:43;;;;;;;10.50;1.70;;;5.50;99.90;;;;;;5037072;28;20061;-80
2023/12/23 02:35:10;;;;;;;11.10;1.65;;;5.50;99.90;;;;;;5053867;28;20102;-80
2023/12/23 02:37:36;;;;;;;15.60;2.40;;;5.90;99.90;;;;;;5050642;28;20033;-80
2023/12/23 02:40:02;;;;;;;19.30;2.30;;;5.50;99.90;;;;;;5051541;28;20605;-80
2023/12/23 02:42:27;;;;;;;9.27;1.30;;;5.50;99.90;;;;;;5082462;28;20045;-80
2023/12/23 02:44:53;;;;;;;8.10;1.35;;;5.80;99.90;;;;;;5079587;28;20060;-79
2023/12/23 02:47:19;;;;;;;8.43;1.38;;;5.40;99.90;;;;;;5051421;28;20048;-80
2023/12/23 02:49:44;;;;;;;14.73;2.03;;;5.40;99.90;;;;;;5055512;28;20025;-80
2023/12/23 02:52:10;;;;;;;9.73;1.65;;;5.30;99.90;;;;;;5058226;28;20083;-80
2023/12/23 02:54:35;;;;;;;7.20;1.45;;;5.30;99.90;;;;;;5048123;28;20121;-79
2023/12/23 02:57:01;;;;;;;13.73;2.50;;;5.20;99.90;;;;;;5035815;28;20038;-80
2023/12/23 02:59:26;;;;;;;7.90;1.52;;;5.10;99.90;;;;;;5052607;28;20063;-80
2023/12/23 03:01:53;;;;;;;12.00;2.33;;;5.10;99.90;;;;;;5056717;28;20560;-80
2023/12/23 03:04:19;;;;;;;10.40;1.30;;;5.10;99.90;;;;;;5050604;28;20041;-80
2023/12/23 03:06:44;;;;;;;12.00;1.63;;;5.00;99.90;;;;;;5055277;28;20501;-80
2023/12/23 03:09:10;;;;;;;9.75;1.42;;;5.00;99.90;;;;;;5038524;28;20029;-80
2023/12/23 03:11:37;;;;;;;6.40;1.33;;;5.00;99.90;;;;;;5055484;28;20036;-80
2023/12/23 03:14:03;;;;;;;12.57;1.52;;;4.90;99.90;;;;;;5056286;28;20048;-80
2023/12/23 03:16:33;;;;;;;10.02;1.50;;;4.90;99.90;;;;;;5053462;28;20037;-80
2023/12/23 03:19:00;;;;;;;7.65;1.20;;;5.20;99.90;;;;;;5050754;28;20045;-80
2023/12/23 03:21:26;;;;;;;9.63;1.20;;;4.90;99.90;;;;;;5088986;28;20512;-80
2023/12/23 03:23:52;;;;;;;14.02;1.40;;;4.90;99.90;;;;;;5055424;28;20037;-80
2023/12/23 03:26:18;;;;;;;9.10;1.27;;;4.90;99.90;;;;;;5055986;28;20059;-80
2023/12/23 03:28:43;;;;;;;8.73;1.40;;;4.90;99.90;;;;;;5056418;28;20120;-80
2023/12/23 03:31:09;;;;;;;7.72;0.85;;;4.90;99.90;;;;;;5082621;28;20065;-80
2023/12/23 03:33:35;;;;;;;9.02;1.00;;;4.80;99.90;;;;;;5057173;28;20048;-80
2023/12/23 03:36:01;;;;;;;7.82;1.05;;;4.90;99.90;;;;;;5055755;28;20029;-80
2023/12/23 03:38:26;;;;;;;7.13;1.10;;;4.80;99.90;;;;;;5055506;28;20544;-80
2023/12/23 03:40:52;;;;;;;3.78;0.80;;;4.80;99.90;;;;;;5048509;28;20048;-80
2023/12/23 03:43:18;;;;;;;6.03;1.15;;;4.80;99.90;;;;;;5047882;28;20033;-81
2023/12/23 03:45:43;;;;;;;6.28;0.90;;;4.80;99.90;;;;;;5048870;28;20044;-80
2023/12/23 03:48:09;;;;;;;6.40;1.50;;;4.80;99.90;;;;;;5054313;28;20404;-80
2023/12/23 03:50:35;;;;;;;7.03;1.05;;;4.80;99.90;;;;;;5054979;28;20082;-81
2023/12/23 03:53:00;;;;;;;5.18;0.90;;;4.80;99.90;;;;;;5049517;28;20385;-81
2023/12/23 03:55:32;;;;;;;4.45;1.08;;;4.70;99.90;;;;;;5054804;28;20033;-80
2023/12/23 03:58:01;;;;;;;9.35;1.27;;;4.70;99.90;;;;;;5055356;28;20033;-81
2023/12/23 04:00:27;;;;;;;6.68;1.17;;;4.70;99.90;;;;;;5055114;28;20400;-80
2023/12/23 04:02:56;;;;;;;7.05;0.90;;;4.70;99.90;;;;;;5048363;28;20033;-81
2023/12/23 04:05:22;;;;;;;4.93;1.10;;;4.70;99.90;;;;;;5051998;28;20048;-80
2023/12/23 04:07:48;;;;;;;5.80;1.20;;;4.70;99.90;;;;;;5087965;28;20033;-80
2023/12/23 04:10:14;;;;;;;6.10;1.00;;;4.70;99.90;;;;;;5076431;28;20052;-80
2023/12/23 04:12:40;;;;;;;5.47;1.05;;;4.70;99.90;;;;;;5036568;28;20032;-80
2023/12/23 04:15:06;;;;;;;6.55;1.05;;;4.70;99.90;;;;;;5052166;28;20033;-80
2023/12/23 04:17:32;;;;;;;6.97;1.15;;;4.70;99.90;;;;;;5053196;28;20116;-80
2023/12/23 04:19:58;;;;;;;5.88;0.90;;;4.70;99.90;;;;;;5034686;28;20533;-80
2023/12/23 04:22:23;;;;;;;5.85;0.90;;;4.70;99.90;;;;;;5053833;28;20043;-80
2023/12/23 04:24:49;;;;;;;7.35;1.40;;;4.70;99.90;;;;;;5035863;28;20128;-80
2023/12/23 04:27:15;;;;;;;7.82;0.88;;;4.70;99.90;;;;;;5053987;28;20547;-80
2023/12/23 04:29:40;;;;;;;4.70;0.82;;;4.70;99.90;;;;;;5046708;28;20036;-80
2023/12/23 04:32:06;;;;;;;6.22;1.10;;;4.70;99.90;;;;;;5052159;28;20040;-79
2023/12/23 04:34:32;;;;;;;8.25;1.23;;;4.70;99.90;;;;;;5054171;28;20128;-80
2023/12/23 04:36:57;;;;;;;7.50;1.08;;;4.70;99.90;;;;;;5053789;28;20078;-80
2023/12/23 04:39:23;;;;;;;4.00;0.85;;;4.70;99.90;;;;;;5050401;28;20028;-80
2023/12/23 04:41:48;;;;;;;3.65;0.82;;;4.70;99.90;;;;;;5053100;28;20033;-80
2023/12/23 04:44:14;;;;;;;4.47;0.90;;;4.70;99.90;;;;;;5086984;28;20060;-80
2023/12/23 04:46:41;;;;;;;4.22;1.02;;;4.70;99.90;;;;;;5053368;28;20033;-80
2023/12/23 04:49:07;;;;;;;6.75;1.00;;;4.70;99.90;;;;;;5054188;28;20405;-80
2023/12/23 04:51:33;;;;;;;9.43;1.10;;;4.70;99.90;;;;;;5036655;28;20128;-79
2023/12/23 04:53:58;;;;;;;4.95;0.70;;;4.70;99.90;;;;;;5049114;28;20501;-80
2023/12/23 04:56:24;;;;;;;8.90;0.95;;;4.70;99.90;;;;;;5053007;28;20120;-80
2023/12/23 04:58:50;;;;;;;5.60;0.98;;;4.70;99.90;;;;;;5050690;28;20126;-80
2023/12/23 05:01:16;;;;;;;7.28;1.20;;;4.70;99.90;;;;;;5051041;28;20029;-80
2023/12/23 05:03:41;;;;;;;4.65;0.90;;;4.70;99.90;;;;;;5033808;28;20053;-80
2023/12/23 05:06:07;;;;;;;3.33;0.82;;;4.70;99.90;;;;;;5048516;28;20025;-80
2023/12/23 05:08:33;;;;;;;5.45;0.90;;;4.70;99.90;;;;;;5082181;28;20110;-80
2023/12/23 05:10:59;;;;;;;4.75;0.82;;;4.70;99.90;;;;;;5053842;28;20123;-80
2023/12/23 05:13:25;;;;;;;6.07;0.93;;;4.70;99.90;;;;;;5053393;28;20439;-80
2023/12/23 05:15:50;;;;;;;5.30;0.77;;;4.70;99.90;;;;;;5053852;28;20036;-80
2023/12/23 05:18:16;;;;;;;6.85;0.93;;;4.70;99.90;;;;;;5047943;28;20036;-80
2023/12/23 05:20:42;;;;;;;4.28;0.80;;;4.70;99.90;;;;;;5053687;28;20037;-80
2023/12/23 05:23:08;;;;;;;6.72;1.23;;;4.70;99.90;;;;;;5054046;28;20044;-80
2023/12/23 05:25:33;;;;;;;4.57;0.90;;;4.70;99.90;;;;;;5053294;28;20033;-80
2023/12/23 05:27:59;;;;;;;4.00;0.80;;;4.70;99.90;;;;;;5053504;28;20070;-80
2023/12/23 05:30:25;;;;;;;4.13;0.90;;;4.70;99.90;;;;;;5050577;28;20112;-80
2023/12/23 05:32:51;;;;;;;6.35;1.45;;;4.70;99.90;;;;;;5053504;28;20029;-80
2023/12/23 05:35:16;;;;;;;3.63;0.90;;;4.70;99.90;;;;;;5053069;28;20478;-80
2023/12/23 05:37:42;;;;;;;4.30;0.90;;;4.90;99.90;;;;;;5050975;28;20412;-80
2023/12/23 05:40:09;;;;;;;3.13;0.80;;;4.70;99.90;;;;;;5053121;28;20382;-80
2023/12/23 05:42:35;;;;;;;2.42;0.77;;;4.70;99.90;;;;;;5050546;28;20053;-80
2023/12/23 05:45:00;;;;;;;3.67;0.73;;;4.70;99.90;;;;;;5052123;28;20150;-80
2023/12/23 05:47:27;;;;;;;2.90;0.63;;;4.70;99.90;;;;;;5034864;28;20037;-80
2023/12/23 05:49:52;;;;;;;3.22;0.82;;;4.70;99.90;;;;;;5033455;28;20090;-80
2023/12/23 05:52:18;;;;;;;2.60;0.65;;;4.70;99.90;;;;;;5052410;28;20467;-80
2023/12/23 05:54:44;;;;;;;3.92;0.80;;;5.10;99.90;;;;;;5082100;28;20102;-80
2023/12/23 05:57:09;;;;;;;1.88;0.70;;;4.70;99.90;;;;;;5051772;28;20040;-80
2023/12/23 05:59:35;;;;;;;1.70;0.70;;;4.70;99.90;;;;;;5046003;28;20079;-80
2023/12/23 06:02:00;;;;;;;3.30;0.80;;;4.70;99.90;;;;;;5047286;28;20489;-80
2023/12/23 06:04:27;;;;;;;3.97;0.80;;;4.70;99.90;;;;;;5030561;28;20036;-80
2023/12/23 06:06:52;;;;;;;3.05;0.60;;;4.70;99.90;;;;;;5086796;28;20080;-80
2023/12/23 06:09:18;;;;;;;4.93;1.00;;;4.70;99.90;;;;;;5051251;28;20086;-80
2023/12/23 06:11:44;;;;;;;2.75;0.60;;;4.70;99.90;;;;;;5085643;28;20029;-80
2023/12/23 06:14:10;;;;;;;6.05;0.80;;;4.70;99.90;;;;;;5051327;28;20118;-80
2023/12/23 06:16:40;;;;;;;2.78;0.70;;;5.10;99.90;;;;;;5046663;28;20052;-80
2023/12/23 06:19:06;;;;;;;4.22;0.77;;;4.70;99.90;;;;;;5052300;28;20419;-80
2023/12/23 06:21:32;;;;;;;2.30;0.50;;;4.70;99.90;;;;;;5052300;28;20044;-80
2023/12/23 06:23:58;;;;;;;4.53;0.65;;;4.70;99.90;;;;;;5050140;28;20040;-80
2023/12/23 06:26:24;;;;;;;2.70;0.55;;;4.70;99.90;;;;;;5052068;28;20041;-80
2023/12/23 06:28:50;;;;;;;2.90;0.60;;;4.60;99.90;;;;;;5043934;28;20072;-80
2023/12/23 06:31:15;;;;;;;1.15;0.40;;;4.60;99.90;;;;;;5046841;28;20037;-80
2023/12/23 06:33:41;;;;;;;4.03;1.13;;;4.60;99.90;;;;;;5050395;28;20592;-80
2023/12/23 06:36:08;;;;;;;3.05;0.80;;;4.70;99.90;;;;;;5049657;28;20033;-80
2023/12/23 06:38:34;;;;;;;1.98;0.70;;;4.60;99.90;;;;;;5048323;28;20037;-80
2023/12/23 06:41:00;;;;;;;3.67;0.88;;;4.60;99.90;;;;;;5048861;28;20454;-80
2023/12/23 06:43:26;;;;;;;1.75;0.50;;;4.60;99.90;;;;;;5032644;28;20029;-80
2023/12/23 06:45:51;;;;;;;1.48;0.52;;;4.60;99.90;;;;;;5049097;28;20037;-80
2023/12/23 06:48:17;;;;;;;2.63;0.60;;;4.60;99.90;;;;;;5048635;28;20040;-79
2023/12/23 06:50:43;;;;;;;3.95;0.70;;;4.60;99.90;;;;;;5048523;28;20060;-80
2023/12/23 06:53:08;;;;;;;1.98;0.47;;;4.50;99.90;;;;;;5045622;28;20373;-79
2023/12/23 06:55:35;;;;;;;2.63;0.50;;;4.50;99.90;;;;;;5049828;28;20037;-80
2023/12/23 06:58:00;;;;;;;3.60;0.40;;;4.50;99.90;;;;;;5048994;28;20192;-80
2023/12/23 07:00:26;;;;;;;1.75;0.40;;;4.50;99.90;;;;;;5050041;28;20108;-79
2023/12/23 07:02:52;;;;;;;4.53;0.65;;;4.70;99.90;;;;;;5050682;28;20455;-80
2023/12/23 07:05:18;;;;;;;2.22;0.60;;;4.50;99.90;;;;;;5047480;28;20119;-80
2023/12/23 07:07:44;;;;;;;2.58;0.63;;;4.50;99.90;;;;;;5048165;28;20076;-80
2023/12/23 07:10:10;;;;;;;3.97;0.60;;;4.50;99.90;;;;;;5048067;28;20033;-80
2023/12/23 07:12:36;;;;;;;4.15;0.80;;;4.40;99.90;;;;;;5048783;28;20037;-80
2023/12/23 07:15:06;;;;;;;1.75;0.40;;;4.40;99.90;;;;;;5048796;28;20535;-80
2023/12/23 07:17:32;;;;;;;5.15;0.82;;;4.40;99.90;;;;;;5041784;28;20040;-80
2023/12/23 07:19:57;;;;;;;1.58;0.60;;;4.40;99.90;;;;;;5079268;28;20033;-80
2023/12/23 07:22:28;;;;;;;2.17;0.60;;;4.40;99.90;;;;;;5045450;28;20099;-79
2023/12/23 07:24:55;;;;;;;2.60;0.70;;;4.40;99.90;;;;;;5048341;28;20040;-79
2023/12/23 07:27:21;;;;;;;2.05;0.50;;;4.40;99.90;;;;;;5051361;28;20080;-80
2023/12/23 07:29:48;;;;;;;1.85;0.60;;;4.40;99.90;;;;;;5075974;28;20033;-80
2023/12/23 07:32:14;;;;;;;2.03;0.63;;;4.40;99.90;;;;;;5047054;28;20124;-80
2023/12/23 07:34:40;;;;;;;1.98;0.50;;;4.40;99.90;;;;;;5051081;28;20056;-80
2023/12/23 07:37:05;;;;;;;1.25;0.47;;;4.40;99.90;;;;;;5053672;28;20467;-80
2023/12/23 07:39:31;;;;;;;1.15;0.50;;;4.40;99.90;;;;;;5049349;28;20041;-80
2023/12/23 07:41:57;;;;;;;2.25;0.70;;;4.40;99.90;;;;;;5055985;28;20048;-80
2023/12/23 07:44:24;;;;;;;1.23;0.52;;;4.40;99.90;;;;;;5056442;28;20045;-80
2023/12/23 07:46:49;;;;;;;1.55;0.43;;;4.40;99.90;;;;;;5056857;28;20064;-80
2023/12/23 07:49:15;;;;;;;0.68;0.40;;;4.40;99.90;;;;;;5055971;28;20124;-79
2023/12/23 07:51:41;;;;;;;0.43;0.30;;;4.40;99.90;;;;;;5056249;28;20029;-80
2023/12/23 07:54:06;;;;;;;2.42;0.30;;;4.40;99.90;;;;;;5056153;28;20094;-79
2023/12/23 07:56:32;;;;;;;1.75;0.50;;;4.50;99.90;;;;;;5055650;28;20052;-80
2023/12/23 07:58:58;;;;;;;0.77;0.30;;;4.50;99.90;;;;;;5055700;28;20059;-80
2023/12/23 08:01:24;;;;;;;1.27;0.20;;;4.50;99.90;;;;;;5055402;28;20037;-80
2023/12/23 08:03:49;;;;;;;1.50;0.38;;;4.40;99.90;;;;;;5078862;28;20039;-80
2023/12/23 08:06:18;;;;;;;1.13;0.20;;;4.40;99.90;;;;;;5038352;28;20466;-80
2023/12/23 08:08:45;;;;;;;1.60;0.30;;;4.40;99.90;;;;;;5055484;28;20059;-79
2023/12/23 08:11:10;;;;;;;1.83;0.50;;;4.40;99.90;;;;;;5053765;28;20761;-79
2023/12/23 08:13:36;;;;;;;2.03;0.50;;;4.40;99.90;;;;;;5077614;28;20036;-80
2023/12/23 08:16:02;;;;;;;1.17;0.50;;;4.40;99.90;;;;;;5076152;28;20037;-80
2023/12/23 08:18:29;;;;;;;0.90;0.30;;;4.40;99.90;;;;;;5053275;28;20534;-80
2023/12/23 08:20:55;;;;;;;1.58;0.40;;;4.40;99.90;;;;;;5053439;28;20048;-80
2023/12/23 08:23:20;;;;;;;1.63;0.75;;;4.50;99.90;;;;;;5053419;28;20033;-80
2023/12/23 08:25:47;;;;;;;0.63;0.32;;;4.50;99.90;;;;;;5053992;28;20070;-80
2023/12/23 08:28:12;;;;;;;1.00;0.40;;;4.50;99.90;;;;;;5053931;28;20128;-79
2023/12/23 08:30:39;;;;;;;1.65;0.60;;;4.50;99.90;;;;;;5053443;28;20060;-80
2023/12/23 08:33:04;;;;;;;1.58;0.60;;;4.50;99.90;;;;;;5037140;28;20029;-80
2023/12/23 08:35:31;;;;;;;1.45;0.60;;;4.50;99.90;;;;;;5047287;28;20025;-80
2023/12/23 08:38:00;;;;;;;1.65;0.63;;;4.50;99.90;;;;;;5033241;28;20091;-80
2023/12/23 08:40:26;;;;;;;2.13;0.77;;;4.60;99.90;;;;;;5047495;28;20083;-80
2023/12/23 08:42:51;;;;;;;1.80;0.80;;;4.60;99.90;;;;;;5051483;28;20041;-80
2023/12/23 08:45:17;;;;;;;1.17;0.70;;;4.70;99.90;;;;;;5047629;28;20522;-80
2023/12/23 08:47:44;;;;;;;1.77;0.73;;;4.60;99.90;;;;;;5048882;28;20045;-80
2023/12/23 08:50:10;;;;;;;1.67;0.57;;;4.60;99.90;;;;;;5051418;28;20037;-80
2023/12/23 08:52:36;;;;;;;2.08;0.70;;;4.70;99.90;;;;;;5049390;28;20394;-79
2023/12/23 08:55:02;;;;;;;1.17;0.60;;;4.60;99.90;;;;;;5074881;28;20064;-80
2023/12/23 08:57:27;;;;;;;1.60;0.57;;;4.60;99.90;;;;;;5047318;28;20052;-80
2023/12/23 08:59:53;;;;;;;1.13;0.60;;;4.60;99.90;;;;;;5047959;28;20033;-80
2023/12/23 09:02:19;;;;;;;2.10;0.70;;;4.60;99.90;;;;;;5052567;28;20065;-79
2023/12/23 09:04:44;;;;;;;1.38;0.80;;;4.70;99.90;;;;;;5033109;28;20090;-80
2023/12/23 09:07:10;;;;;;;0.82;0.40;;;4.60;99.90;;;;;;5053419;28;20037;-79
2023/12/23 09:09:36;;;;;;;1.98;0.60;;;4.70;99.90;;;;;;5052743;28;20123;-79
2023/12/23 09:12:01;;;;;;;1.00;0.47;;;4.70;99.90;;;;;;5052543;28;20068;-80
2023/12/23 09:14:27;;;;;;;1.42;0.77;;;4.70;99.90;;;;;;5053158;28;20032;-80
2023/12/23 09:16:53;;;;;;;1.38;0.52;;;4.70;99.90;;;;;;5053501;28;20047;-79
2023/12/23 09:19:18;;;;;;;0.98;0.65;;;4.70;99.90;;;;;;5052398;28;20048;-80
2023/12/23 09:21:44;;;;;;;2.97;0.80;;;4.70;99.90;;;;;;5044138;28;20509;-80
2023/12/23 09:24:09;;;;;;;2.15;0.80;;;4.80;99.90;;;;;;5051713;28;20052;-80
2023/12/23 09:26:35;;;;;;;1.02;0.55;;;4.80;99.90;;;;;;5079293;28;20401;-80
2023/12/23 09:29:01;;;;;;;2.03;0.70;;;4.80;99.90;;;;;;5050583;28;20100;-80
2023/12/23 09:31:27;;;;;;;1.02;0.60;;;4.80;99.90;;;;;;5054320;28;20048;-80
2023/12/23 09:33:52;;;;;;;1.20;0.60;;;4.80;99.90;;;;;;5053386;28;20029;-80
2023/12/23 09:36:18;;;;;;;1.65;0.70;;;4.80;99.90;;;;;;5053359;28;20053;-80
2023/12/23 09:38:44;;;;;;;2.45;1.00;;;4.80;99.90;;;;;;5050815;28;20032;-80
2023/12/23 09:41:09;;;;;;;4.65;1.42;;;4.80;99.90;;;;;;5054471;28;20543;-80
2023/12/23 09:43:35;;;;;;;1.65;1.10;;;4.80;99.90;;;;;;5052975;28;20408;-80
2023/12/23 09:46:03;;;;;;;4.22;2.15;;;4.80;99.90;;;;;;5052837;28;20029;-80
2023/12/23 09:48:29;;;;;;;3.17;2.17;;;4.80;99.90;;;;;;5051497;28;20124;-80
2023/12/23 09:50:55;;;;;;;3.38;1.58;;;4.80;99.90;;;;;;5052592;28;20069;-80
2023/12/23 09:53:22;;;;;;;1.90;1.30;;;4.80;99.90;;;;;;5054488;28;20037;-80
2023/12/23 09:55:47;;;;;;;4.13;1.83;;;4.80;99.90;;;;;;5048000;28;20063;-79
2023/12/23 09:58:13;;;;;;;2.28;1.20;;;4.80;99.90;;;;;;5051302;28;20037;-79
2023/12/23 10:00:39;;;;;;;2.45;1.40;;;4.80;99.90;;;;;;5052245;28;20060;-80
2023/12/23 10:03:06;;;;;;;3.00;1.60;;;4.80;99.90;;;;;;5052155;28;20048;-79
2023/12/23 10:05:31;;;;;;;2.05;1.20;;;4.90;99.90;;;;;;5052815;28;20041;-80
2023/12/23 10:07:58;;;;;;;2.50;1.40;;;4.90;99.90;;;;;;5087295;28;20408;-80
2023/12/23 10:10:26;;;;;;;1.73;1.20;;;4.80;99.90;;;;;;5053921;28;20033;-80
2023/12/23 10:12:53;;;;;;;1.40;0.90;;;4.80;99.90;;;;;;5047386;28;20044;-80
2023/12/23 10:15:19;;;;;;;1.27;0.77;;;5.10;99.90;;;;;;5053950;28;20404;-80
2023/12/23 10:17:44;;;;;;;1.30;0.98;;;4.80;99.90;;;;;;5076536;28;20041;-80
2023/12/23 10:20:13;;;;;;;1.58;1.00;;;4.80;99.90;;;;;;5052437;28;20048;-80
2023/12/23 10:22:45;;;;;;;1.65;0.90;;;4.80;99.90;;;;;;5046479;28;20055;-80
2023/12/23 10:25:12;;;;;;;2.22;1.10;;;4.80;99.90;;;;;;5052181;28;20110;-80
2023/12/23 10:27:40;;;;;;;2.58;1.30;;;4.80;99.90;;;;;;5051314;28;20120;-80
2023/12/23 10:30:11;;;;;;;2.38;1.42;;;4.80;99.90;;;;;;5051753;28;20048;-80
2023/12/23 10:32:39;;;;;;;2.05;1.20;;;4.80;99.90;;;;;;5053065;28;20404;-80
2023/12/23 10:35:07;;;;;;;1.65;1.10;;;4.90;99.90;;;;;;5051632;28;20025;-80
2023/12/23 10:37:40;;;;;;;2.00;1.00;;;4.90;99.90;;;;;;5051656;28;20045;-80
2023/12/23 10:40:16;;;;;;;1.30;0.80;;;4.90;99.90;;;;;;5034738;28;20043;-80
2023/12/23 10:42:43;;;;;;;1.70;0.88;;;4.90;99.90;;;;;;5052027;28;20037;-80
2023/12/23 10:45:10;;;;;;;2.03;0.77;;;4.90;99.90;;;;;;5034544;28;20103;-80
2023/12/23 10:47:37;;;;;;;1.13;0.68;;;4.90;99.90;;;;;;5052882;28;20124;-80
2023/12/23 10:50:04;;;;;;;1.00;0.52;;;4.90;99.90;;;;;;5049523;28;20115;-79
2023/12/23 10:52:30;;;;;;;1.10;0.60;;;4.90;99.90;;;;;;5052667;28;20496;-80
2023/12/23 10:54:56;;;;;;;13.75;1.35;;;4.90;99.90;;;;;;5052551;28;20029;-80
2023/12/23 10:57:22;;;;;;;1.48;0.90;;;4.90;99.90;;;;;;5051742;28;20040;-80
2023/12/23 10:59:48;;;;;;;2.10;1.20;;;4.90;99.90;;;;;;5050385;28;20679;-79
2023/12/23 11:02:18;;;;;;;1.55;1.00;;;5.00;99.90;;;;;;5051637;28;20048;-80
2023/12/23 11:04:48;;;;;;;1.80;1.00;;;5.00;99.90;;;;;;5033136;28;20041;-79
2023/12/23 11:07:15;;;;;;;1.50;0.90;;;5.00;99.90;;;;;;5045707;28;20049;-80
2023/12/23 11:09:42;;;;;;;1.92;1.00;;;5.00;99.90;;;;;;5051629;28;20037;-80
2023/12/23 11:12:08;;;;;;;1.73;1.00;;;5.10;99.90;;;;;;5056187;28;20078;-80
2023/12/23 11:14:36;;;;;;;1.40;0.90;;;5.00;99.90;;;;;;5055425;28;20033;-80
2023/12/23 11:17:02;;;;;;;2.00;1.20;;;5.10;99.90;;;;;;5056178;28;20048;-80
2023/12/23 11:19:27;;;;;;;1.92;1.17;;;5.20;99.90;;;;;;5050726;28;20041;-80
2023/12/23 11:22:25;;;;;;;1.95;1.33;;;5.20;99.90;;;;;;5021098;28;20037;-80
2023/12/23 11:24:51;;;;;;;2.17;1.30;;;5.50;99.90;;;;;;5033810;28;20127;-79
2023/12/23 11:27:37;;;;;;;1.98;1.13;;;5.20;99.90;;;;;;5036152;28;20050;-80
2023/12/23 11:30:05;;;;;;;1.50;1.00;;;5.20;99.90;;;;;;5035949;28;20116;-80
2023/12/23 11:32:41;;;;;;;1.92;1.20;;;5.20;99.90;;;;;;5036587;28;20413;-80
2023/12/23 11:35:12;;;;;;;1.75;1.13;;;5.20;99.90;;;;;;5050839;28;20135;-79
2023/12/23 11:37:54;;;;;;;2.20;1.08;;;5.20;99.90;;;;;;5037310;28;20413;-80
2023/12/23 11:40:21;;;;;;;1.25;0.77;;;5.20;99.90;;;;;;5054249;28;20112;-79
2023/12/23 11:42:48;;;;;;;0.85;0.60;;;5.30;99.90;;;;;;5050615;28;20033;-79
2023/12/23 11:45:15;;;;;;;1.45;0.77;;;5.30;99.90;;;;;;5051600;28;20071;-79
2023/12/23 11:47:41;;;;;;;1.15;0.70;;;5.20;99.90;;;;;;5030926;28;20060;-79
2023/12/23 11:50:07;;;;;;;1.48;0.70;;;5.20;99.90;;;;;;5052095;28;20086;-79
2023/12/23 11:52:34;;;;;;;1.75;0.88;;;5.20;99.90;;;;;;5040225;28;20460;-79
2023/12/23 11:55:00;;;;;;;1.20;0.80;;;5.20;99.90;;;;;;5054880;28;20037;-79
2023/12/23 11:57:27;;;;;;;1.98;1.38;;;5.20;99.90;;;;;;5062170;28;20033;-79
2023/12/23 11:59:54;;;;;;;1.95;1.27;;;5.20;99.90;;;;;;5060052;28;20036;-79
2023/12/23 12:02:19;;;;;;;2.30;1.27;;;5.20;99.90;;;;;;5055397;28;20509;-79
2023/12/23 12:04:45;;;;;;;2.20;1.30;;;5.20;99.90;;;;;;5055098;28;20044;-79
2023/12/23 12:07:11;;;;;;;2.35;1.60;;;5.20;99.90;;;;;;5055567;28;20048;-79
2023/12/23 12:09:37;;;;;;;2.83;1.65;;;5.30;99.90;;;;;;5054932;28;20059;-79
2023/12/23 12:12:04;;;;;;;2.55;1.70;;;5.30;99.90;;;;;;5055515;28;20032;-79
2023/12/23 12:14:30;;;;;;;2.22;1.60;;;5.30;99.90;;;;;;5053309;28;20040;-79
2023/12/23 12:16:56;;;;;;;2.70;1.88;;;5.40;99.90;;;;;;5037475;28;20064;-79
2023/12/23 12:19:21;;;;;;;3.22;2.22;;;5.40;99.90;;;;;;5054992;28;20041;-79
2023/12/23 12:21:47;;;;;;;3.00;2.38;;;5.50;99.90;;;;;;5055280;28;20033;-79
2023/12/23 12:24:13;;;;;;;3.00;2.30;;;5.50;99.90;;;;;;5055029;28;20049;-79
2023/12/23 12:26:39;;;;;;;3.28;2.60;;;5.50;99.90;;;;;;5055132;28;20041;-80
2023/12/23 12:29:05;;;;;;;4.22;2.63;;;5.60;99.90;;;;;;5056139;28;20029;-79
2023/12/23 12:31:31;;;;;;;4.00;2.75;;;5.60;99.90;;;;;;5055173;28;20354;-79
2023/12/23 12:33:58;;;;;;;4.63;2.85;;;5.60;99.90;;;;;;5054873;28;20381;-79
2023/12/23 12:36:24;;;;;;;6.50;4.15;;;5.60;99.90;;;;;;5038745;28;20033;-79
2023/12/23 12:38:50;;;;;;;8.38;5.10;;;5.70;99.90;;;;;;5055211;28;20083;-79
2023/12/23 12:41:16;;;;;;;6.85;4.68;;;5.70;99.90;;;;;;5038566;28;20044;-79
2023/12/23 12:43:43;;;;;;;4.40;3.08;;;5.70;99.90;;;;;;5053927;28;20037;-79
2023/12/23 12:46:11;;;;;;;4.63;2.80;;;5.70;99.90;;;;;;5055142;28;20051;-80
2023/12/23 12:48:37;;;;;;;4.03;2.40;;;6.00;99.90;;;;;;5054831;28;20041;-79
2023/12/23 12:51:05;;;;;;;3.80;2.42;;;5.80;99.90;;;;;;5055279;28;20091;-79